Time;durP1;ratioP1;P1;durP2;ratioP2;P2;SDS_P1;SDS_P2;PMS_P1;PMS_P2;Temp;Humidity;BMP_temperature;BMP_pressure;BME280_temperature;BME280_humidity;BME280_pressure;Samples;Min_cycle;Max_cycle;Signal;HPM_P1;HPM_P2
2023/05/07 00:00:34;;;;;;;;;3.00;3.00;;;;;18.77;100.00;100707.97;5082288;27;45399;-86
2023/05/07 00:03:01;;;;;;;;;7.67;6.00;;;;;18.72;100.00;100704.47;5100156;27;45649;-86
2023/05/07 00:05:26;;;;;;;;;5.33;5.33;;;;;18.66;100.00;100710.88;5082076;27;45530;-86
2023/05/07 00:07:52;;;;;;;;;8.00;8.00;;;;;18.62;100.00;100708.28;5082037;27;48139;-86
2023/05/07 00:10:18;;;;;;;;;6.00;4.00;;;;;18.50;100.00;100713.00;5083126;27;46004;-86
2023/05/07 00:12:43;;;;;;;;;6.00;4.00;;;;;18.48;100.00;100705.84;5082702;27;45571;-86
2023/05/07 00:15:09;;;;;;;;;3.00;2.00;;;;;18.47;100.00;100714.84;5102380;27;45380;-86
2023/05/07 00:17:34;;;;;;;;;5.00;5.00;;;;;18.44;100.00;100713.13;5083610;27;46981;-86
2023/05/07 00:20:00;;;;;;;;;4.00;4.00;;;;;18.39;100.00;100717.69;5100944;27;45759;-86
2023/05/07 00:22:25;;;;;;;;;5.00;5.00;;;;;18.36;100.00;100710.56;5100443;27;45495;-86
2023/05/07 00:24:50;;;;;;;;;5.00;5.00;;;;;18.33;100.00;100715.97;5082896;27;45440;-86
2023/05/07 00:27:17;;;;;;;;;4.00;4.00;;;;;18.44;100.00;100722.97;5100746;27;47119;-86
2023/05/07 00:29:43;;;;;;;;;4.00;4.00;;;;;18.26;100.00;100726.88;5081975;27;45378;-86
2023/05/07 00:32:08;;;;;;;;;4.33;4.33;;;;;18.18;100.00;100714.47;5100242;27;45750;-86
2023/05/07 00:34:34;;;;;;;;;5.00;4.33;;;;;18.21;100.00;100728.78;5082906;27;45378;-85
2023/05/07 00:36:59;;;;;;;;;5.00;4.67;;;;;18.19;100.00;100721.63;5062963;28;47285;-85
2023/05/07 00:39:24;;;;;;;;;3.00;3.00;;;;;18.21;100.00;100731.47;5080302;28;45409;-85
2023/05/07 00:41:51;;;;;;;;;4.00;4.00;;;;;18.11;100.00;100712.78;5063410;28;45451;-85
2023/05/07 00:44:18;;;;;;;;;4.67;4.67;;;;;18.10;100.00;100715.53;5061855;28;45421;-84
2023/05/07 00:46:44;;;;;;;;;4.00;4.00;;;;;18.08;100.00;100720.94;5056164;28;47115;-84
2023/05/07 00:49:10;;;;;;;;;6.00;6.00;;;;;18.00;100.00;100709.41;5065274;28;45457;-84
2023/05/07 00:51:35;;;;;;;;;5.00;3.00;;;;;17.99;100.00;100704.94;5047633;28;45461;-84
2023/05/07 00:54:02;;;;;;;;;7.00;5.00;;;;;18.05;100.00;100701.25;5048933;28;45608;-83
2023/05/07 00:56:28;;;;;;;;;7.67;6.00;;;;;17.95;100.00;100704.09;5065489;28;45926;-84
2023/05/07 00:58:54;;;;;;;;;4.00;3.00;;;;;17.98;100.00;100713.94;5046617;28;45961;-84
2023/05/07 01:01:19;;;;;;;;;5.00;5.00;;;;;17.96;100.00;100699.63;5046971;28;45501;-84
2023/05/07 01:03:46;;;;;;;;;5.67;5.67;;;;;18.05;100.00;100704.81;5047115;28;45826;-84
2023/05/07 01:06:13;;;;;;;;;6.67;6.67;;;;;18.00;100.00;100704.03;5046323;28;47191;-84
2023/05/07 01:08:40;;;;;;;;;5.67;5.67;;;;;18.02;100.00;100701.28;5048292;28;45781;-85
2023/05/07 01:11:07;;;;;;;;;6.00;5.00;;;;;18.00;100.00;100704.03;5047770;28;45552;-84
2023/05/07 01:13:34;;;;;;;;;9.00;6.00;;;;;18.03;100.00;100703.97;5065534;28;45311;-84
2023/05/07 01:16:00;;;;;;;;;7.00;4.67;;;;;18.00;100.00;100693.25;5046234;28;48092;-85
2023/05/07 01:18:26;;;;;;;;;3.00;3.00;;;;;18.01;100.00;100688.75;5065793;28;45521;-85
2023/05/07 01:20:52;;;;;;;;;7.00;7.00;;;;;18.06;100.00;100682.41;5064853;28;45473;-85
2023/05/07 01:23:18;;;;;;;;;3.33;3.33;;;;;18.09;100.00;100682.31;5047341;28;45480;-85
2023/05/07 01:25:50;;;;;;;;;4.00;4.00;;;;;18.10;100.00;100681.41;5065337;28;45390;-85
2023/05/07 01:28:15;;;;;;;;;5.00;4.00;;;;;18.11;100.00;100685.88;5064344;28;45363;-85
2023/05/07 01:30:51;;;;;;;;;6.33;6.00;;;;;18.23;100.00;100683.88;5046613;28;45614;-85
2023/05/07 01:33:21;;;;;;;;;6.67;5.33;;;;;18.17;100.00;100688.44;5065528;28;45389;-85
2023/05/07 01:35:50;;;;;;;;;7.00;6.00;;;;;18.16;100.00;100689.38;5063681;28;45529;-84
2023/05/07 01:38:16;;;;;;;;;4.33;4.33;;;;;18.07;100.00;100689.53;5046186;28;45398;-84
2023/05/07 01:40:42;;;;;;;;;3.33;2.67;;;;;18.01;100.00;100705.78;5065112;28;45419;-85
2023/05/07 01:43:09;;;;;;;;;4.67;3.33;;;;;17.98;100.00;100700.47;5045008;28;45734;-84
2023/05/07 01:45:35;;;;;;;;;2.33;2.33;;;;;17.97;100.00;100704.06;5045844;28;47963;-84
2023/05/07 01:48:01;;;;;;;;;4.00;2.67;;;;;17.99;100.00;100696.84;5062845;28;45484;-84
2023/05/07 01:50:29;;;;;;;;;2.00;2.00;;;;;18.04;100.00;100700.38;5064801;28;45410;-84
2023/05/07 01:52:55;;;;;;;;;3.00;3.00;;;;;18.00;100.00;100704.03;5047068;28;45423;-84
2023/05/07 01:55:20;;;;;;;;;3.00;2.00;;;;;18.00;100.00;100704.03;5064087;28;46096;-85
2023/05/07 01:57:45;;;;;;;;;1.00;1.00;;;;;17.92;100.00;100697.91;5064028;28;45405;-84
2023/05/07 02:00:11;;;;;;;;;1.00;1.00;;;;;17.91;100.00;100688.91;5044608;28;45474;-84
2023/05/07 02:02:37;;;;;;;;;0.00;0.00;;;;;17.90;100.00;100699.72;5064464;28;45517;-85
2023/05/07 02:05:03;;;;;;;;;0.00;0.00;;;;;17.91;100.00;100694.28;5047925;28;47320;-84
2023/05/07 02:07:29;;;;;;;;;1.67;1.00;;;;;17.88;100.00;100698.88;5065827;28;45385;-85
2023/05/07 02:09:55;;;;;;;;;0.25;0.25;;;;;17.87;100.00;100706.03;5046819;28;45439;-85
2023/05/07 02:12:21;;;;;;;;;1.00;1.00;;;;;17.88;100.00;100704.25;5049531;28;45418;-84
2023/05/07 02:14:46;;;;;;;;;0.00;0.00;;;;;17.88;100.00;100705.13;5065125;28;45497;-85
2023/05/07 02:17:12;;;;;;;;;2.50;1.50;;;;;17.96;100.00;100707.69;5065179;28;45413;-85
2023/05/07 02:19:37;;;;;;;;;2.33;1.33;;;;;18.01;100.00;100704.91;5048278;28;45374;-84
2023/05/07 02:22:02;;;;;;;;;2.00;1.00;;;;;18.02;100.00;100721.03;5066580;28;45386;-84
2023/05/07 02:24:28;;;;;;;;;0.00;0.00;;;;;18.07;100.00;100715.56;5049259;28;47285;-85
2023/05/07 02:26:53;;;;;;;;;0.00;0.00;;;;;18.16;100.00;100726.19;5047081;28;45873;-85
2023/05/07 02:29:18;;;;;;;;;1.33;0.33;;;;;18.18;100.00;100717.16;5048142;28;45416;-85
2023/05/07 02:31:44;;;;;;;;;0.00;0.00;;;;;18.19;100.00;100716.22;5065146;28;45325;-84
2023/05/07 02:34:09;;;;;;;;;1.00;1.00;;;;;18.23;100.00;100724.28;5065338;28;45529;-85
2023/05/07 02:36:35;;;;;;;;;1.00;0.00;;;;;18.24;100.00;100717.94;5047149;28;45373;-84
2023/05/07 02:39:00;;;;;;;;;0.00;0.00;;;;;18.29;100.00;100726.84;5045943;28;45890;-84
2023/05/07 02:41:27;;;;;;;;;0.00;0.00;;;;;18.29;100.00;100729.53;5045595;28;45581;-84
2023/05/07 02:43:53;;;;;;;;;1.25;1.25;;;;;18.28;100.00;100730.44;5046184;28;47353;-85
2023/05/07 02:46:18;;;;;;;;;1.75;1.75;;;;;18.27;100.00;100726.00;5066610;28;45366;-84
2023/05/07 02:48:43;;;;;;;;;1.50;0.75;;;;;18.26;100.00;100721.50;5047094;28;45441;-85
2023/05/07 02:51:09;;;;;;;;;3.25;2.00;;;;;18.26;100.00;100724.19;5045386;28;45292;-84
2023/05/07 02:53:34;;;;;;;;;0.75;0.75;;;;;18.28;100.00;100722.38;5064442;28;46039;-85
2023/05/07 02:56:00;;;;;;;;;0.00;0.00;;;;;18.24;100.00;100721.56;5062681;28;45370;-84
2023/05/07 02:58:26;;;;;;;;;1.00;1.00;;;;;18.19;100.00;100716.22;5044956;28;45444;-85
2023/05/07 03:00:52;;;;;;;;;0.00;0.00;;;;;18.21;100.00;100718.03;5065158;28;45402;-85
2023/05/07 03:06:39;;;;;;;;;0.00;0.00;;;;;18.19;100.00;100716.22;5066632;28;45338;-85
2023/05/07 03:09:05;;;;;;;;;1.67;1.00;;;;;18.27;100.00;100726.00;5065897;27;45714;-85
2023/05/07 03:11:30;;;;;;;;;0.00;0.00;;;;;18.29;100.00;100718.78;5062438;28;45378;-85
2023/05/07 03:13:58;;;;;;;;;1.67;0.00;;;;;18.32;100.00;100718.69;5044289;28;48565;-85
2023/05/07 03:16:23;;;;;;;;;1.00;1.00;;;;;18.34;100.00;100724.94;5044179;28;45410;-85
2023/05/07 03:18:48;;;;;;;;;0.33;0.33;;;;;18.31;100.00;100730.41;5043124;28;45358;-84
2023/05/07 03:21:14;;;;;;;;;0.00;0.00;;;;;18.32;100.00;100732.16;5023124;28;45602;-85
2023/05/07 03:23:39;;;;;;;;;0.33;0.33;;;;;18.30;100.00;100732.22;5044096;28;45902;-85
2023/05/07 03:26:05;;;;;;;;;0.00;0.00;;;;;18.29;100.00;100726.84;5026012;28;45780;-84
2023/05/07 03:28:30;;;;;;;;;0.00;0.00;;;;;18.27;100.00;100726.00;5043041;28;45781;-85
2023/05/07 03:30:55;;;;;;;;;0.00;0.00;;;;;18.25;100.00;100719.75;5044665;28;45743;-85
2023/05/07 03:33:21;;;;;;;;;0.33;0.00;;;;;18.23;100.00;100717.06;5043104;28;46098;-84
2023/05/07 03:35:46;;;;;;;;;0.00;0.00;;;;;18.22;100.00;100719.78;5024607;28;45390;-84
2023/05/07 03:38:12;;;;;;;;;1.00;0.00;;;;;18.19;100.00;100713.53;5043950;28;45443;-84
2023/05/07 03:40:37;;;;;;;;;1.00;1.00;;;;;18.15;100.00;100703.75;5042686;28;45362;-84
2023/05/07 03:43:02;;;;;;;;;0.00;0.00;;;;;18.19;100.00;100716.22;5024100;28;47284;-84
2023/05/07 03:45:28;;;;;;;;;0.67;0.00;;;;;18.13;100.00;100718.16;5024474;28;45408;-85
2023/05/07 03:47:53;;;;;;;;;0.00;0.00;;;;;18.05;100.00;100718.28;5025605;28;44860;-84
2023/05/07 03:50:19;;;;;;;;;1.00;0.00;;;;;18.03;100.00;100717.41;5043423;28;45392;-84
2023/05/07 03:52:45;;;;;;;;;0.00;0.00;;;;;17.96;100.00;100716.63;5025926;28;46758;-85
2023/05/07 03:55:10;;;;;;;;;0.00;0.00;;;;;17.96;100.00;100722.03;5024998;28;45393;-84
2023/05/07 03:57:35;;;;;;;;;1.00;1.00;;;;;17.93;100.00;100726.56;5024729;28;45745;-84
2023/05/07 04:00:01;;;;;;;;;0.00;0.00;;;;;18.00;100.00;100736.31;5024270;28;45621;-85
2023/05/07 04:02:26;;;;;;;;;0.00;0.00;;;;;18.02;100.00;100728.19;5042575;28;45544;-84
2023/05/07 04:04:52;;;;;;;;;0.67;0.67;;;;;18.06;100.00;100735.34;5025829;28;45449;-85
2023/05/07 04:07:17;;;;;;;;;0.00;0.00;;;;;18.00;100.00;100736.31;5043507;28;45787;-85
2023/05/07 04:09:42;;;;;;;;;0.00;0.00;;;;;17.97;100.00;100733.66;5024378;28;45347;-84
2023/05/07 04:12:08;;;;;;;;;2.00;0.00;;;;;17.90;100.00;100732.00;5025651;28;47171;-84
2023/05/07 04:14:33;;;;;;;;;0.00;0.00;;;;;17.93;100.00;100740.00;5041536;28;45560;-85
2023/05/07 04:16:59;;;;;;;;;0.00;0.00;;;;;17.94;100.00;100739.13;5024584;28;45366;-84
2023/05/07 04:19:25;;;;;;;;;0.00;0.00;;;;;18.01;100.00;100748.84;5024828;28;45373;-84
2023/05/07 04:21:50;;;;;;;;;0.00;0.00;;;;;18.02;100.00;100745.25;5024107;28;48013;-85
2023/05/07 04:24:15;;;;;;;;;0.00;0.00;;;;;18.06;100.00;100749.69;5027301;28;45411;-85
2023/05/07 04:26:41;;;;;;;;;1.00;1.00;;;;;18.09;100.00;100741.53;5027617;28;45549;-84
2023/05/07 04:29:06;;;;;;;;;0.67;0.67;;;;;18.15;100.00;100746.81;5046223;28;45419;-85
2023/05/07 04:31:32;;;;;;;;;0.00;0.00;;;;;18.18;100.00;100757.53;5045064;28;46289;-85
2023/05/07 04:34:05;;;;;;;;;0.00;0.00;;;;;18.23;100.00;100748.50;5027863;28;45670;-85
2023/05/07 04:36:30;;;;;;;;;0.00;0.00;;;;;18.12;100.00;100757.66;5047388;28;45494;-85
2023/05/07 04:38:55;;;;;;;;;0.00;0.00;;;;;18.16;100.00;100762.06;5026190;28;45380;-85
2023/05/07 04:41:28;;;;;;;;;1.33;1.33;;;;;18.26;100.00;100753.81;5043763;28;45407;-84
2023/05/07 04:43:53;;;;;;;;;0.00;0.00;;;;;18.10;100.00;100754.09;5026487;28;45778;-84
2023/05/07 04:46:20;;;;;;;;;0.00;0.00;;;;;18.24;100.00;100761.94;5028272;28;45407;-85
2023/05/07 04:48:45;;;;;;;;;0.00;0.00;;;;;18.21;100.00;100761.09;5045578;28;45339;-85
2023/05/07 04:51:10;;;;;;;;;0.33;0.33;;;;;18.18;100.00;100757.53;5027152;28;46912;-85
2023/05/07 04:53:37;;;;;;;;;0.00;0.00;;;;;18.25;100.00;100766.38;5045904;28;45428;-84
2023/05/07 04:56:02;;;;;;;;;0.00;0.00;;;;;18.14;100.00;100766.59;5027883;28;45491;-83
2023/05/07 04:58:31;;;;;;;;;1.67;0.00;;;;;18.15;100.00;100784.50;5028449;28;45693;-85
2023/05/07 05:00:57;;;;;;;;;0.33;0.33;;;;;18.12;100.00;100773.78;5027596;28;47846;-85
2023/05/07 05:03:22;;;;;;;;;1.00;1.00;;;;;18.07;100.00;100764.00;5026320;28;46029;-84
2023/05/07 05:05:49;;;;;;;;;1.00;1.00;;;;;18.13;100.00;100770.16;5026469;28;45403;-85
2023/05/07 05:08:15;;;;;;;;;0.67;0.67;;;;;18.06;100.00;100768.50;5027870;28;45957;-85
2023/05/07 05:10:41;;;;;;;;;1.00;1.00;;;;;18.08;100.00;100776.56;5046722;28;45539;-84
2023/05/07 05:13:07;;;;;;;;;1.00;1.00;;;;;18.06;100.00;100775.72;5027029;28;46123;-85
2023/05/07 05:15:33;;;;;;;;;1.00;1.00;;;;;18.09;100.00;100772.94;5045317;28;45668;-84
2023/05/07 05:17:58;;;;;;;;;0.67;0.67;;;;;18.08;100.00;100774.75;5045739;28;45490;-84
2023/05/07 05:20:23;;;;;;;;;1.33;1.33;;;;;18.14;100.00;100781.84;5029137;28;47969;-85
2023/05/07 05:22:49;;;;;;;;;1.00;1.00;;;;;18.13;100.00;100778.25;5027749;28;45536;-85
2023/05/07 05:25:14;;;;;;;;;1.00;1.00;;;;;18.21;100.00;100790.72;5047511;28;45425;-85
2023/05/07 05:27:39;;;;;;;;;0.00;0.00;;;;;18.21;100.00;100788.00;5046567;28;45463;-85
2023/05/07 05:30:05;;;;;;;;;0.00;0.00;;;;;18.22;100.00;100795.16;5027742;28;47133;-85
2023/05/07 05:32:31;;;;;;;;;0.00;0.00;;;;;18.18;100.00;100792.53;5026684;28;45511;-85
2023/05/07 05:34:56;;;;;;;;;0.00;0.00;;;;;18.22;100.00;100792.47;5028064;28;51475;-85
2023/05/07 05:37:21;;;;;;;;;0.00;0.00;;;;;18.27;100.00;100804.06;5027751;28;45506;-85
2023/05/07 05:39:47;;;;;;;;;0.00;0.00;;;;;18.29;100.00;100802.22;5028440;28;47430;-84
2023/05/07 05:42:12;;;;;;;;;0.00;0.00;;;;;18.27;100.00;100796.00;5028169;28;45552;-84
2023/05/07 05:44:37;;;;;;;;;0.00;0.00;;;;;18.31;100.00;100792.31;5026533;28;45735;-85
2023/05/07 05:47:03;;;;;;;;;1.00;1.00;;;;;18.33;100.00;100798.56;5044725;28;45427;-84
2023/05/07 05:49:28;;;;;;;;;1.00;1.00;;;;;18.37;100.00;100797.59;5044968;28;46569;-85
2023/05/07 05:51:53;;;;;;;;;0.00;0.00;;;;;18.40;100.00;100802.94;5027899;28;45635;-85
2023/05/07 05:54:19;;;;;;;;;1.25;0.00;;;;;18.38;100.00;100796.69;5045554;28;45388;-85
2023/05/07 05:56:44;;;;;;;;;0.75;0.00;;;;;18.37;100.00;100800.28;5028292;28;45455;-85
2023/05/07 05:59:10;;;;;;;;;0.50;0.50;;;;;18.42;100.00;100808.28;5045672;28;46063;-85
2023/05/07 06:01:35;;;;;;;;;0.00;0.00;;;;;18.40;100.00;100808.34;5047144;28;45385;-85
2023/05/07 06:04:01;;;;;;;;;0.75;0.75;;;;;18.44;100.00;100807.38;5046907;28;45442;-85
2023/05/07 06:06:27;;;;;;;;;1.00;0.00;;;;;18.46;100.00;100810.91;5044770;28;45406;-85
2023/05/07 06:08:52;;;;;;;;;0.00;0.00;;;;;18.42;100.00;100800.22;5026738;28;48243;-84
2023/05/07 06:11:17;;;;;;;;;1.00;1.00;;;;;18.47;100.00;100807.31;5025456;28;45443;-85
2023/05/07 06:13:43;;;;;;;;;0.00;0.00;;;;;18.53;100.00;100820.66;5043666;28;45743;-84
2023/05/07 06:16:08;;;;;;;;;0.00;0.00;;;;;18.57;100.00;100811.59;5025961;28;45418;-84
2023/05/07 06:18:35;;;;;;;;;0.00;0.00;;;;;18.65;100.00;100815.97;5026965;28;47181;-85
2023/05/07 06:21:02;;;;;;;;;0.00;0.00;;;;;18.72;100.00;100820.31;5044250;28;45395;-85
2023/05/07 06:23:27;;;;;;;;;0.25;0.25;;;;;18.58;100.00;100821.47;5025698;28;45723;-85
2023/05/07 06:25:53;;;;;;;;;1.75;0.75;;;;;18.61;100.00;100825.91;5044250;28;45289;-85
2023/05/07 06:28:18;;;;;;;;;1.25;0.00;;;;;18.55;100.00;100816.13;5026452;28;48265;-85
2023/05/07 06:30:43;;;;;;;;;0.75;0.75;;;;;18.57;100.00;100821.50;5044505;28;45362;-85
2023/05/07 06:33:10;;;;;;;;;1.00;1.00;;;;;18.68;100.00;100813.22;5042439;28;45301;-84
2023/05/07 06:35:35;;;;;;;;;0.00;0.00;;;;;18.65;100.00;100822.25;5042797;28;45451;-85
2023/05/07 06:38:01;;;;;;;;;0.25;0.25;;;;;18.73;100.00;100816.72;5026021;28;47941;-84
2023/05/07 06:40:26;;;;;;;;;0.00;0.00;;;;;18.82;100.00;100829.16;5043290;28;45351;-84
2023/05/07 06:42:52;;;;;;;;;0.25;0.25;;;;;18.81;100.00;100825.59;5045806;28;45998;-85
2023/05/07 06:45:19;;;;;;;;;1.50;1.50;;;;;18.94;100.00;100831.63;5044274;28;45513;-85
2023/05/07 06:47:45;;;;;;;;;1.25;0.00;;;;;18.87;100.00;100838.94;5026640;28;48245;-85
2023/05/07 06:50:10;;;;;;;;;1.00;1.00;;;;;18.84;100.00;100833.59;5045829;28;45326;-85
2023/05/07 06:52:36;;;;;;;;;0.00;0.00;;;;;18.87;100.00;100836.25;5041412;28;45488;-85
2023/05/07 06:55:01;;;;;;;;;0.25;0.25;;;;;18.89;100.00;100834.41;5042027;28;45443;-85
2023/05/07 06:57:26;;;;;;;;;1.00;1.00;;;;;18.94;100.00;100839.72;5042635;28;46216;-84
2023/05/07 06:59:52;;;;;;;;;0.25;0.25;;;;;18.97;100.00;100840.53;5024791;28;45837;-84
2023/05/07 07:02:17;;;;;;;;;0.00;0.00;;;;;18.99;100.00;100848.59;5025323;28;45312;-85
2023/05/07 07:04:42;;;;;;;;;1.00;1.00;;;;;18.97;100.00;100840.53;5041956;28;45323;-84
2023/05/07 07:07:08;;;;;;;;;1.50;1.50;;;;;18.94;100.00;100840.59;5025150;28;47566;-85
2023/05/07 07:09:33;;;;;;;;;0.00;0.00;;;;;18.96;100.00;100841.44;5025330;28;49311;-84
2023/05/07 07:11:58;;;;;;;;;0.50;0.50;;;;;18.96;100.00;100843.25;5026200;28;45603;-85
2023/05/07 07:14:24;;;;;;;;;0.75;0.75;;;;;19.03;100.00;100852.09;5045025;28;45456;-84
2023/05/07 07:16:49;;;;;;;;;2.25;1.25;;;;;19.06;100.00;100849.38;5043860;28;46041;-85
2023/05/07 07:19:15;;;;;;;;;0.00;0.00;;;;;19.08;100.00;100847.53;5025198;28;45766;-84
2023/05/07 07:21:41;;;;;;;;;1.00;1.00;;;;;19.16;100.00;100845.56;5027449;28;45432;-84
2023/05/07 07:24:06;;;;;;;;;1.00;1.00;;;;;19.10;100.00;100845.69;5044344;28;45437;-84
2023/05/07 07:26:32;;;;;;;;;1.00;1.00;;;;;19.06;100.00;100852.06;5025958;28;47560;-84
2023/05/07 07:28:57;;;;;;;;;1.00;1.00;;;;;19.01;100.00;100851.25;5025536;28;46012;-85
2023/05/07 07:31:22;;;;;;;;;0.50;0.50;;;;;19.03;100.00;100861.13;5025584;28;45374;-84
2023/05/07 07:33:49;;;;;;;;;1.00;1.00;;;;;19.09;100.00;100861.00;5027950;28;45429;-84
2023/05/07 07:36:15;;;;;;;;;0.75;0.00;;;;;19.14;100.00;100871.69;5044313;28;46264;-84
2023/05/07 07:38:40;;;;;;;;;0.00;0.00;;;;;19.14;100.00;100866.28;5045321;28;45188;-84
2023/05/07 07:41:08;;;;;;;;;1.00;1.00;;;;;19.32;100.00;100871.31;5027201;28;45670;-84
2023/05/07 07:43:33;;;;;;;;;1.00;1.00;;;;;19.29;100.00;100879.47;5030175;28;44778;-85
2023/05/07 07:45:59;;;;;;;;;0.00;0.00;;;;;19.29;100.00;100874.09;5029624;28;48324;-85
2023/05/07 07:48:24;;;;;;;;;1.00;1.00;;;;;19.31;100.00;100871.34;5026918;28;45510;-84
2023/05/07 07:50:51;;;;;;;;;0.00;0.00;;;;;19.36;100.00;100869.44;5044587;28;45399;-84
2023/05/07 07:53:17;;;;;;;;;1.00;1.00;;;;;19.42;100.00;100871.13;5045852;28;45812;-84
2023/05/07 07:55:42;;;;;;;;;1.67;1.67;;;;;19.49;100.00;100880.88;5027280;28;47280;-84
2023/05/07 07:58:08;;;;;;;;;1.00;1.00;;;;;19.66;100.00;100873.31;5048324;28;45445;-84
2023/05/07 08:00:34;;;;;;;;;0.33;0.33;;;;;19.66;100.00;100872.44;5049483;28;45409;-84
2023/05/07 08:03:00;;;;;;;;;1.00;1.00;;;;;19.71;100.00;100866.06;5031572;28;45517;-84
2023/05/07 08:05:25;;;;;;;;;2.00;2.00;;;;;19.80;100.00;100875.75;5032005;28;46815;-84
2023/05/07 08:07:52;;;;;;;;;1.00;1.00;;;;;19.88;100.00;100870.19;5030177;28;45448;-84
2023/05/07 08:10:21;;;;;;;;;2.33;2.33;;;;;19.97;100.00;100878.06;5031281;28;45397;-85
2023/05/07 08:12:50;;;;;;;;;1.33;1.33;;;;;20.18;100.00;100874.88;5049744;28;45421;-85
2023/05/07 08:15:16;;;;;;;;;2.33;1.00;;;;;20.34;100.00;100883.50;5030597;28;47042;-85
2023/05/07 08:17:41;;;;;;;;;2.33;1.00;;;;;20.45;100.00;100880.53;5031440;28;45464;-84
2023/05/07 08:20:07;;;;;;;;;2.00;2.00;;;;;20.52;100.00;100884.88;5032967;28;45453;-84
2023/05/07 08:22:36;;;;;;;;;1.67;1.67;;;;;20.76;100.00;100880.72;5052118;28;45375;-85
2023/05/07 08:25:02;;;;;;;;;2.33;2.33;;;;;20.87;100.00;100890.34;5052491;28;45343;-84
2023/05/07 08:27:28;;;;;;;;;2.00;2.00;;;;;20.91;100.00;100889.34;5055303;28;45488;-85
2023/05/07 08:29:54;;;;;;;;;1.00;1.00;;;;;20.94;100.00;100890.13;5036912;28;45418;-84
2023/05/07 08:32:20;;;;;;;;;2.33;2.00;;;;;20.95;100.00;100897.31;5034954;28;45432;-85
2023/05/07 08:34:46;;;;;;;;;2.33;2.33;;;;;20.86;100.00;100886.72;5051956;28;46396;-84
2023/05/07 08:37:11;;;;;;;;;5.67;5.67;;;;;20.89;100.00;100896.59;5051539;28;45521;-85
2023/05/07 08:39:36;;;;;;;;;2.67;2.67;;;;;20.85;100.00;100894.91;5034865;28;45430;-84
2023/05/07 08:42:04;;;;;;;;;5.00;4.67;;;;;20.89;100.00;100894.78;5033604;28;45516;-84
2023/05/07 08:44:33;;;;;;;;;2.00;2.00;;;;;20.84;100.00;100904.81;5033595;28;47268;-85
2023/05/07 08:47:01;;;;;;;;;1.00;1.00;;;;;20.81;100.00;100904.03;5034524;28;45336;-85
2023/05/07 08:49:27;;;;;;;;;1.00;1.00;;;;;20.85;100.00;100911.13;5051714;28;45414;-84
2023/05/07 08:51:53;;;;;;;;;3.00;3.00;;;;;20.87;100.00;100909.28;5032906;28;45400;-85
2023/05/07 08:54:19;;;;;;;;;2.00;2.00;;;;;20.93;100.00;100911.81;5049146;28;45387;-85
2023/05/07 08:56:45;;;;;;;;;2.00;2.00;;;;;20.87;100.00;100910.16;5033477;28;44802;-85
2023/05/07 08:59:48;;;;;;;;;2.75;2.00;;;;;21.03;100.00;100907.94;5051868;28;44713;-85
2023/05/07 09:02:13;;;;;;;;;1.00;1.00;;;;;20.87;100.00;100909.28;5033324;28;45356;-85
2023/05/07 09:04:39;;;;;;;;;2.00;1.00;;;;;20.91;100.00;100914.56;5032692;28;47830;-86
2023/05/07 09:07:05;;;;;;;;;2.00;2.00;;;;;20.98;100.00;100907.16;5032906;28;45704;-85
2023/05/07 09:09:32;;;;;;;;;1.00;1.00;;;;;21.13;100.00;100908.59;5032731;28;45379;-85
2023/05/07 09:12:01;;;;;;;;;2.00;2.00;;;;;21.10;100.00;100908.66;5049328;28;45501;-85
2023/05/07 09:14:28;;;;;;;;;2.00;2.00;;;;;21.11;100.00;100908.63;5048761;28;45985;-85
2023/05/07 09:16:53;;;;;;;;;0.50;0.50;;;;;21.21;100.00;100914.66;5031188;28;45351;-86
2023/05/07 09:19:24;;;;;;;;;3.00;1.75;;;;;21.44;100.00;100907.75;5050276;28;45265;-85
2023/05/07 09:21:49;;;;;;;;;1.00;1.00;;;;;21.49;100.00;100908.50;5030722;28;45623;-85
2023/05/07 09:24:16;;;;;;;;;2.00;2.00;;;;;21.72;100.00;100919.56;5046308;28;45433;-85
2023/05/07 09:26:41;;;;;;;;;1.75;1.75;;;;;21.81;100.00;100909.38;5050422;28;44959;-86
2023/05/07 09:29:09;;;;;;;;;1.75;1.00;;;;;22.10;100.00;100912.09;5052681;28;45485;-85
2023/05/07 09:31:38;;;;;;;;;2.67;2.67;;;;;22.37;99.49;100910.38;5037749;28;45814;-86
2023/05/07 09:34:05;;;;;;;;;3.00;3.00;;;;;22.30;100.00;100899.75;5033545;28;47527;-86
2023/05/07 09:36:32;;;;;;;;;3.00;2.00;;;;;22.43;100.00;100909.28;5032604;28;45400;-85
2023/05/07 09:38:59;;;;;;;;;2.33;2.33;;;;;22.55;98.07;100908.88;5051420;28;45388;-84
2023/05/07 09:41:25;;;;;;;;;2.67;2.67;;;;;22.46;95.25;100908.28;5033302;28;45655;-84
2023/05/07 09:43:54;;;;;;;;;2.00;2.00;;;;;22.68;98.63;100919.31;5031195;28;47814;-84
2023/05/07 09:46:27;;;;;;;;;3.00;3.00;;;;;22.89;96.97;100912.31;5030436;28;45520;-84
2023/05/07 09:48:56;;;;;;;;;2.00;2.00;;;;;22.67;93.34;100910.31;5032172;28;45379;-85
2023/05/07 09:51:26;;;;;;;;;3.00;3.00;;;;;22.62;95.72;100914.97;5047207;28;45447;-85
2023/05/07 09:53:52;;;;;;;;;3.00;3.00;;;;;22.60;92.87;100911.44;5046887;28;45403;-85
2023/05/07 09:56:19;;;;;;;;;4.00;2.67;;;;;22.50;94.85;100916.28;5031829;28;45497;-84
2023/05/07 09:58:46;;;;;;;;;6.33;4.67;;;;;22.50;95.12;100908.16;5029972;28;45411;-85
2023/05/07 10:01:12;;;;;;;;;2.33;2.33;;;;;22.37;94.53;100910.38;5048248;28;45428;-85
2023/05/07 10:03:40;;;;;;;;;3.00;3.00;;;;;22.49;93.16;100908.22;5046638;28;45368;-85
2023/05/07 10:06:09;;;;;;;;;2.00;2.00;;;;;22.43;87.25;100911.13;5033587;28;45372;-85
2023/05/07 10:08:35;;;;;;;;;3.00;3.00;;;;;22.23;86.41;100919.84;5050334;28;45476;-85
2023/05/07 10:11:02;;;;;;;;;2.00;2.00;;;;;22.07;91.78;100914.91;5051655;28;44778;-85
2023/05/07 10:13:29;;;;;;;;;3.00;3.00;;;;;22.07;92.21;100916.72;5034212;28;46804;-85
2023/05/07 10:15:55;;;;;;;;;2.67;2.67;;;;;22.06;93.39;100925.81;5051222;28;45419;-86
2023/05/07 10:18:32;;;;;;;;;5.00;3.00;;;;;22.00;92.90;100916.03;5033346;28;45482;-86
2023/05/07 10:21:06;;;;;;;;;3.00;3.00;;;;;21.94;90.46;100925.22;5030956;28;45483;-86
2023/05/07 10:23:33;;;;;;;;;2.33;2.33;;;;;21.65;90.31;100925.19;5031813;28;47372;-84
2023/05/07 10:26:02;;;;;;;;;2.00;2.00;;;;;21.52;91.56;100930.97;5031418;28;45524;-85
2023/05/07 10:28:30;;;;;;;;;3.00;3.00;;;;;21.42;95.92;100926.69;5049790;28;45758;-85
2023/05/07 10:31:08;;;;;;;;;3.00;3.00;;;;;21.44;98.62;100929.41;5051020;28;45454;-85
2023/05/07 10:33:36;;;;;;;;;5.33;4.00;;;;;21.38;98.80;100930.44;5031497;28;47374;-85
2023/05/07 10:36:04;;;;;;;;;4.00;4.00;;;;;21.35;98.78;100933.22;5035290;28;45554;-84
2023/05/07 10:38:30;;;;;;;;;4.67;4.67;;;;;21.32;99.15;100934.19;5032716;28;45371;-85
2023/05/07 10:40:55;;;;;;;;;3.67;3.67;;;;;21.34;99.87;100936.84;5050736;28;45359;-84
2023/05/07 10:43:44;;;;;;;;;4.33;4.00;;;;;21.49;99.28;100935.56;5032871;28;47050;-85
2023/05/07 10:46:18;;;;;;;;;6.00;6.00;;;;;21.42;100.00;100933.94;5032505;28;45975;-85
2023/05/07 10:49:08;;;;;;;;;6.67;5.00;;;;;21.61;100.00;100943.34;5034140;28;45804;-85
2023/05/07 10:51:35;;;;;;;;;5.00;5.00;;;;;21.46;100.00;100951.91;5050528;28;45671;-85
2023/05/07 10:54:12;;;;;;;;;5.67;5.67;;;;;21.70;100.00;100951.19;5033076;28;46848;-83
2023/05/07 10:56:44;;;;;;;;;5.67;4.67;;;;;21.87;100.00;100947.13;5049081;28;45461;-83
2023/05/07 10:59:30;;;;;;;;;7.00;5.67;;;;;22.22;100.00;100948.78;5049192;28;45738;-85
2023/05/07 11:01:58;;;;;;;;;5.67;5.33;;;;;22.34;100.00;100944.84;5046931;28;45464;-84
2023/05/07 11:04:26;;;;;;;;;6.33;6.33;;;;;22.63;100.00;100943.00;5030772;28;47504;-84
2023/05/07 11:07:29;;;;;;;;;6.00;6.00;;;;;22.93;97.74;100950.09;5030464;28;45040;-84
2023/05/07 11:09:58;;;;;;;;;7.67;7.00;;;;;22.88;98.28;100943.94;5046073;28;45372;-85
2023/05/07 11:12:35;;;;;;;;;7.33;5.67;;;;;23.25;97.39;100948.16;5029123;28;45394;-84
2023/05/07 11:15:11;;;;;;;;;5.00;5.00;;;;;23.38;91.80;100945.00;5046189;28;45419;-84
2023/05/07 11:17:54;;;;;;;;;4.25;4.25;;;;;23.61;93.12;100941.41;5048907;28;45418;-85
2023/05/07 11:20:20;;;;;;;;;5.25;5.25;;;;;23.65;88.24;100934.94;5045588;28;45394;-84